James M Cox Dayton International Airport
KDAY : now visible

Airfield :











YOU CAN JOIN US ON...

 
LOGIN :

Register | Disclaimer

   EN    FR    IT 

 









Legend :    VFR   Marginal VFR   IFR   Intensive IFR   Very Intensive IFR
Visi :
Ceiling :
>= 8 km
>= 3000ft
5 to 8 km
1000 to 3000 ft
1500m to 5 km
500 to 1000 ft
800 to 1500m
200 to 500 ft
< 800m
< 200 ft
Symbols :   Thunderstorms  Fog  Heavy snow  Heavy precipitations  Wind > 20 kt






- Airport Elevation : 1009 ft
- IATA code : DAY


KDAY - James M Cox Dayton International

CURRENT METAR :
  • 130556Z 01004KT 10SM FEW046 FEW250 20/17 A3010 RMK AO2 SLP187 T02000167 10267 20200 53002 $

EXPIRED METARs :
  • 130456Z 03003KT 10SM FEW050 SCT250 21/17 A3010 RMK AO2 SLP183 T02110172 402890194 $
  • 130356Z 04005KT 10SM BKN050 BKN230 22/18 A3010 RMK AO2 SLP185 T02170178 $

TAF KDAY
Valid from the 13 at 06:00 until the 14 at 06:00 UTC


130536Z 1306/1406 04004KT P6SM FEW045 SCT250
FM131400 04007KT P6SM SCT040 BKN250
FM140300 02005KT P6SM FEW045 OVC250
KZID FIR / North America



MET'MAP, your aeronautical weather chart ! - Copyright ORBIFLY December 2007 - Disclaimer

ORBIFLY MET'MAP TEAM :

Programming & Development : Alexandra Zaïnal
Concept & original design : Baudouin d'Aumeries
Assistance for programming : Marc-Olivier Méhu
Technical & hardware support : Manuel Goepfert

Contact : metmap@orbifly.com




SOURCES & CREDITS :

   NOAA       Earth
Advisory